Time;durP1;ratioP1;P1;durP2;ratioP2;P2;SDS_P1;SDS_P2;PMS_P1;PMS_P2;Temp;Humidity;BMP_temperature;BMP_pressure;BME280_temperature;BME280_humidity;BME280_pressure;Samples;Min_cycle;Max_cycle;Signal;HPM_P1;HPM_P2
2021/05/24 00:00:20;;;;;;;1.23;0.40;;;14.20;64.60;;;;;;5054353;28;20078;-79
2021/05/24 00:02:46;;;;;;;5.63;0.50;;;14.20;64.60;;;;;;5054297;28;20037;-81
2021/05/24 00:05:15;;;;;;;3.90;0.57;;;14.10;64.50;;;;;;5054151;28;20119;-81
2021/05/24 00:07:41;;;;;;;4.72;0.40;;;14.10;64.30;;;;;;5054138;28;20473;-77
2021/05/24 00:10:10;;;;;;;1.45;0.40;;;14.20;64.30;;;;;;5036403;28;20036;-79
2021/05/24 00:12:36;;;;;;;2.83;0.50;;;14.20;64.20;;;;;;5066267;28;20029;-82
2021/05/24 00:15:05;;;;;;;2.75;0.47;;;14.20;64.20;;;;;;5073024;28;20040;-76
2021/05/24 00:17:30;;;;;;;2.28;0.30;;;14.20;64.50;;;;;;5071143;28;20115;-77
2021/05/24 00:19:56;;;;;;;2.50;0.40;;;14.20;64.40;;;;;;5072052;28;20060;-80
2021/05/24 00:22:22;;;;;;;1.30;0.30;;;14.20;64.40;;;;;;5073844;28;20032;-80
2021/05/24 00:24:47;;;;;;;2.72;0.70;;;14.20;64.60;;;;;;5072801;28;20415;-78
2021/05/24 00:27:13;;;;;;;4.07;0.68;;;14.20;64.60;;;;;;5072976;28;20055;-80
2021/05/24 00:29:39;;;;;;;1.88;0.47;;;14.20;64.50;;;;;;5072502;28;20036;-78
2021/05/24 00:32:05;;;;;;;1.90;0.50;;;14.30;64.40;;;;;;5072143;28;20032;-75
2021/05/24 00:34:31;;;;;;;3.22;0.50;;;14.20;64.60;;;;;;5055413;28;20365;-74
2021/05/24 00:36:57;;;;;;;1.95;0.47;;;14.20;64.50;;;;;;5073432;28;20032;-75
2021/05/24 00:39:23;;;;;;;2.78;0.47;;;14.20;64.70;;;;;;5073511;28;20118;-77
2021/05/24 00:41:50;;;;;;;1.20;0.30;;;14.20;64.80;;;;;;5072110;28;20376;-76
2021/05/24 00:44:16;;;;;;;3.50;0.47;;;14.20;64.90;;;;;;5071414;28;20064;-75
2021/05/24 00:46:42;;;;;;;3.45;0.52;;;14.20;65.00;;;;;;5055236;28;20498;-74
2021/05/24 00:49:08;;;;;;;1.13;0.30;;;14.20;65.20;;;;;;5073316;28;20033;-75
2021/05/24 00:51:35;;;;;;;2.05;0.40;;;14.20;65.20;;;;;;5055339;28;20052;-75
2021/05/24 00:54:01;;;;;;;2.30;0.43;;;14.20;65.30;;;;;;5073194;28;20028;-75
2021/05/24 00:56:28;;;;;;;2.85;0.32;;;14.20;65.40;;;;;;5055251;28;20048;-74
2021/05/24 00:58:53;;;;;;;2.78;0.52;;;14.20;65.40;;;;;;5071956;28;20043;-75
2021/05/24 01:01:20;;;;;;;1.77;0.20;;;14.20;65.40;;;;;;5073263;28;20107;-74
2021/05/24 01:03:46;;;;;;;3.42;0.30;;;14.20;65.20;;;;;;5073247;28;20039;-76
2021/05/24 01:06:11;;;;;;;3.95;0.43;;;14.20;65.40;;;;;;5073165;28;20028;-74
2021/05/24 01:08:37;;;;;;;1.90;0.35;;;14.20;65.70;;;;;;5072034;28;20040;-74
2021/05/24 01:11:03;;;;;;;3.95;0.55;;;14.20;65.60;;;;;;5071771;28;20031;-73
2021/05/24 01:13:29;;;;;;;3.47;0.40;;;14.20;65.70;;;;;;5071587;28;20203;-74
2021/05/24 01:15:55;;;;;;;2.38;0.38;;;14.20;65.70;;;;;;5055146;28;20033;-76
2021/05/24 01:18:20;;;;;;;3.83;0.43;;;14.20;65.70;;;;;;5071990;28;20027;-76
2021/05/24 01:20:46;;;;;;;1.60;0.30;;;14.30;66.00;;;;;;5071893;28;20021;-76
2021/05/24 01:23:14;;;;;;;1.83;0.30;;;14.20;65.90;;;;;;5073137;28;20107;-76
2021/05/24 01:25:47;;;;;;;3.05;0.70;;;14.30;65.90;;;;;;5071905;28;20060;-76
2021/05/24 01:28:15;;;;;;;2.72;0.30;;;14.20;66.00;;;;;;5071737;28;20023;-76
2021/05/24 01:30:42;;;;;;;3.45;0.40;;;14.20;65.90;;;;;;5071753;28;20024;-75
2021/05/24 01:33:09;;;;;;;2.63;0.45;;;14.20;66.00;;;;;;5071768;28;20036;-75
2021/05/24 01:35:39;;;;;;;4.10;0.60;;;14.20;66.20;;;;;;5055209;28;20017;-80
2021/05/24 01:38:06;;;;;;;1.90;0.30;;;14.30;66.30;;;;;;5071780;28;20013;-75
2021/05/24 01:40:32;;;;;;;2.97;0.30;;;14.20;66.20;;;;;;5055338;28;20041;-76
2021/05/24 01:43:00;;;;;;;5.65;0.50;;;14.20;66.60;;;;;;5072857;28;20515;-74
2021/05/24 01:45:26;;;;;;;2.45;0.30;;;14.20;67.20;;;;;;5054967;28;20024;-75
2021/05/24 01:47:53;;;;;;;5.25;0.50;;;14.20;66.90;;;;;;5071491;28;20020;-75
2021/05/24 01:50:19;;;;;;;3.40;0.50;;;14.20;67.00;;;;;;5071608;28;20032;-77
2021/05/24 01:52:45;;;;;;;4.00;0.40;;;14.20;67.00;;;;;;5054780;28;20033;-76
2021/05/24 01:55:12;;;;;;;1.25;0.20;;;14.20;67.40;;;;;;5073899;28;20017;-76
2021/05/24 01:57:39;;;;;;;3.30;0.40;;;14.20;67.40;;;;;;5058863;28;20108;-74
2021/05/24 02:00:21;;;;;;;2.95;0.43;;;14.20;68.20;;;;;;5074970;28;20042;-72
2021/05/24 02:02:48;;;;;;;2.33;0.40;;;14.20;67.50;;;;;;5076352;28;20380;-75
2021/05/24 02:05:15;;;;;;;3.75;0.47;;;14.20;68.20;;;;;;5076282;28;20398;-75
2021/05/24 02:07:42;;;;;;;1.80;0.40;;;14.10;67.50;;;;;;5074952;28;20046;-75
2021/05/24 02:10:10;;;;;;;6.05;0.60;;;14.10;67.60;;;;;;5074886;28;20404;-75
2021/05/24 02:12:36;;;;;;;3.25;0.50;;;14.10;67.80;;;;;;5074768;28;20040;-75
2021/05/24 02:15:04;;;;;;;2.47;0.32;;;14.10;67.90;;;;;;5074745;28;20539;-75
2021/05/24 02:17:29;;;;;;;2.53;0.45;;;14.10;68.00;;;;;;5076281;28;20066;-75
2021/05/24 02:19:55;;;;;;;2.95;0.25;;;14.10;68.10;;;;;;5058464;28;20127;-74
2021/05/24 02:22:21;;;;;;;3.75;0.30;;;14.00;68.20;;;;;;5075998;28;20060;-73
2021/05/24 02:24:46;;;;;;;1.92;0.30;;;14.10;68.20;;;;;;5074734;28;20473;-75
2021/05/24 02:27:12;;;;;;;2.83;0.50;;;14.00;68.30;;;;;;5075916;28;20025;-75
2021/05/24 02:29:38;;;;;;;3.17;0.40;;;14.00;68.40;;;;;;5075880;28;20031;-75
2021/05/24 02:32:04;;;;;;;1.67;0.32;;;14.00;68.60;;;;;;5074687;28;20033;-75
2021/05/24 02:34:30;;;;;;;2.10;0.40;;;14.00;68.80;;;;;;5075876;28;20025;-73
2021/05/24 02:36:56;;;;;;;3.33;0.40;;;14.00;68.80;;;;;;5074674;28;20162;-74
2021/05/24 02:39:22;;;;;;;2.83;0.30;;;14.00;69.00;;;;;;5057880;28;20119;-76
2021/05/24 02:41:48;;;;;;;2.38;0.63;;;14.00;69.00;;;;;;5075766;28;20467;-74
2021/05/24 02:44:13;;;;;;;2.88;0.30;;;13.90;69.10;;;;;;5074780;28;20486;-74
2021/05/24 02:46:40;;;;;;;2.95;0.30;;;14.00;69.20;;;;;;5074326;28;20024;-76
2021/05/24 02:49:06;;;;;;;1.23;0.30;;;14.00;69.40;;;;;;5075518;28;20024;-74
2021/05/24 02:51:32;;;;;;;3.72;0.30;;;14.00;69.40;;;;;;5075657;28;20023;-73
2021/05/24 02:53:58;;;;;;;3.97;0.40;;;14.00;69.60;;;;;;5074120;28;20127;-76
2021/05/24 02:56:23;;;;;;;2.95;0.30;;;14.00;69.50;;;;;;5075503;28;20100;-80
2021/05/24 02:58:49;;;;;;;2.22;0.32;;;14.00;70.10;;;;;;5074435;28;20032;-80
2021/05/24 03:01:15;;;;;;;2.22;0.60;;;14.00;69.90;;;;;;5074420;28;20033;-77
2021/05/24 03:03:41;;;;;;;3.03;0.40;;;14.00;70.00;;;;;;5074140;28;20029;-77
2021/05/24 03:06:07;;;;;;;1.10;0.20;;;14.00;70.00;;;;;;5057024;28;20411;-80
2021/05/24 03:08:33;;;;;;;2.15;0.45;;;13.90;70.00;;;;;;5057573;28;20082;-80
2021/05/24 03:10:59;;;;;;;1.27;0.30;;;13.90;70.40;;;;;;5057515;28;20151;-77
2021/05/24 03:13:25;;;;;;;1.77;0.35;;;13.90;70.60;;;;;;5075374;28;20384;-79
2021/05/24 03:15:54;;;;;;;2.75;0.40;;;13.90;70.50;;;;;;5075037;28;20033;-79
2021/05/24 03:18:20;;;;;;;3.30;0.40;;;13.80;70.50;;;;;;5073930;28;20036;-80
2021/05/24 03:20:46;;;;;;;1.27;0.30;;;13.90;70.70;;;;;;5073994;28;20031;-78
2021/05/24 03:23:12;;;;;;;1.38;0.30;;;13.80;70.60;;;;;;5057271;28;20029;-77
2021/05/24 03:25:38;;;;;;;4.25;0.47;;;13.80;70.80;;;;;;5075206;28;20033;-78
2021/05/24 03:28:04;;;;;;;3.20;0.50;;;13.70;70.80;;;;;;5073638;28;20123;-77
2021/05/24 03:30:30;;;;;;;1.08;0.35;;;13.70;70.80;;;;;;5075050;28;20488;-79
2021/05/24 03:32:56;;;;;;;3.03;0.60;;;13.70;71.00;;;;;;5056990;28;20439;-79
2021/05/24 03:35:22;;;;;;;2.08;0.40;;;13.70;71.40;;;;;;5056973;28;20043;-81
2021/05/24 03:37:47;;;;;;;2.92;0.60;;;13.60;71.50;;;;;;5073557;28;20028;-78
2021/05/24 03:40:15;;;;;;;2.42;0.50;;;13.60;71.60;;;;;;5057186;28;20028;-78
2021/05/24 03:42:41;;;;;;;2.25;0.40;;;13.60;71.60;;;;;;5057201;28;20062;-77
2021/05/24 03:45:10;;;;;;;2.45;0.60;;;13.60;72.00;;;;;;5074832;28;20095;-79
2021/05/24 03:47:36;;;;;;;2.45;0.47;;;13.60;71.80;;;;;;5074564;28;20146;-79
2021/05/24 03:50:03;;;;;;;2.08;0.40;;;13.60;71.90;;;;;;5074365;28;20040;-79
2021/05/24 03:52:29;;;;;;;2.90;0.50;;;13.50;72.10;;;;;;5073132;28;20047;-79
2021/05/24 03:54:54;;;;;;;2.05;0.30;;;13.50;72.00;;;;;;5056279;28;20029;-72
2021/05/24 03:57:20;;;;;;;2.67;0.30;;;13.50;72.20;;;;;;5074145;28;20033;-77
2021/05/24 03:59:46;;;;;;;3.30;0.47;;;13.50;72.30;;;;;;5056261;28;20024;-74
2021/05/24 04:02:11;;;;;;;1.58;0.25;;;13.40;72.40;;;;;;5051721;28;20032;-77
2021/05/24 04:04:38;;;;;;;4.03;0.40;;;13.40;73.30;;;;;;5019337;28;20123;-75
2021/05/24 04:07:05;;;;;;;2.63;0.50;;;13.40;72.70;;;;;;5051252;28;20055;-73
2021/05/24 04:09:31;;;;;;;1.75;0.65;;;13.40;72.90;;;;;;5052494;28;20040;-74
2021/05/24 04:11:57;;;;;;;2.28;0.32;;;13.40;73.10;;;;;;5036126;28;20036;-76
2021/05/24 04:14:23;;;;;;;3.28;0.35;;;13.40;73.00;;;;;;5036120;28;20052;-75
2021/05/24 04:16:48;;;;;;;2.70;0.30;;;13.40;73.10;;;;;;5035044;28;20124;-74
2021/05/24 04:19:14;;;;;;;3.30;0.75;;;13.40;73.30;;;;;;5052541;28;20033;-74
2021/05/24 04:21:41;;;;;;;4.43;0.52;;;13.30;73.50;;;;;;5052599;28;20392;-74
2021/05/24 04:24:09;;;;;;;3.65;0.60;;;13.30;74.30;;;;;;5052287;28;20071;-74
2021/05/24 04:26:35;;;;;;;2.15;0.30;;;13.40;74.00;;;;;;5053709;28;20032;-74
2021/05/24 04:29:00;;;;;;;2.55;0.35;;;13.30;73.80;;;;;;5053521;28;20029;-75
2021/05/24 04:31:26;;;;;;;0.70;0.30;;;13.30;73.90;;;;;;5035777;28;20031;-75
2021/05/24 04:33:52;;;;;;;5.57;0.50;;;13.30;74.00;;;;;;5052155;28;20048;-75
2021/05/24 04:36:18;;;;;;;3.47;0.60;;;13.30;74.00;;;;;;5053563;28;20029;-75
2021/05/24 04:38:44;;;;;;;3.03;0.40;;;13.30;73.90;;;;;;5035735;28;20360;-81
2021/05/24 04:41:09;;;;;;;1.65;0.40;;;13.30;74.00;;;;;;5052295;28;20503;-77
2021/05/24 04:43:38;;;;;;;1.92;0.40;;;13.30;74.50;;;;;;5053350;28;20033;-78
2021/05/24 04:46:04;;;;;;;2.25;0.40;;;13.30;74.30;;;;;;5036239;28;20124;-76
2021/05/24 04:48:29;;;;;;;2.15;0.35;;;13.30;74.60;;;;;;5052162;28;20143;-75
2021/05/24 04:50:55;;;;;;;2.40;0.32;;;13.30;74.60;;;;;;5052072;28;20029;-74
2021/05/24 04:53:21;;;;;;;2.22;0.47;;;13.30;75.10;;;;;;5035401;28;20029;-76
2021/05/24 04:55:47;;;;;;;1.27;0.40;;;13.30;74.70;;;;;;5035404;28;20125;-76
2021/05/24 04:58:12;;;;;;;1.85;0.40;;;13.30;74.70;;;;;;5051959;28;20033;-74
2021/05/24 05:00:39;;;;;;;3.10;0.45;;;13.30;74.70;;;;;;5052106;28;20078;-76
2021/05/24 05:03:05;;;;;;;1.52;0.30;;;13.30;74.90;;;;;;5053155;28;20029;-76
2021/05/24 05:05:33;;;;;;;2.70;0.30;;;13.30;75.00;;;;;;5035657;28;20108;-75
2021/05/24 05:07:59;;;;;;;3.88;0.30;;;13.30;74.90;;;;;;5053216;28;20043;-75
2021/05/24 05:10:25;;;;;;;1.38;0.35;;;13.30;74.90;;;;;;5053036;28;20112;-74
2021/05/24 05:12:50;;;;;;;2.35;0.40;;;13.40;75.00;;;;;;5035049;28;20033;-75
2021/05/24 05:15:16;;;;;;;1.25;0.30;;;13.40;75.20;;;;;;5035478;28;20045;-76
2021/05/24 05:17:41;;;;;;;4.55;0.55;;;13.40;75.10;;;;;;5035373;28;20033;-77
2021/05/24 05:20:08;;;;;;;1.50;0.50;;;13.40;75.10;;;;;;5035688;28;20017;-79
2021/05/24 05:22:33;;;;;;;3.30;0.40;;;13.40;75.00;;;;;;5053125;28;20040;-73
2021/05/24 05:24:59;;;;;;;3.25;0.45;;;13.50;75.20;;;;;;5051721;28;20033;-75
2021/05/24 05:27:25;;;;;;;2.92;0.75;;;13.50;75.20;;;;;;5051647;28;20032;-75
2021/05/24 05:29:50;;;;;;;2.17;0.30;;;13.50;75.30;;;;;;5053908;28;20079;-76
2021/05/24 05:32:16;;;;;;;2.17;0.40;;;13.50;75.30;;;;;;5038824;28;20033;-76
2021/05/24 05:34:42;;;;;;;2.03;0.40;;;13.50;75.20;;;;;;5055720;28;20486;-76
2021/05/24 05:37:07;;;;;;;1.40;0.40;;;13.60;75.30;;;;;;5055798;28;20037;-78
2021/05/24 05:39:33;;;;;;;1.77;0.60;;;13.60;75.30;;;;;;5056898;28;20465;-74
2021/05/24 05:41:59;;;;;;;1.75;0.30;;;13.60;75.20;;;;;;5056790;28;20264;-74
2021/05/24 05:44:25;;;;;;;1.42;0.50;;;13.60;75.20;;;;;;5055621;28;20059;-73
2021/05/24 05:46:51;;;;;;;2.70;0.32;;;13.60;75.10;;;;;;5055484;28;20033;-75
2021/05/24 05:49:16;;;;;;;2.60;0.40;;;13.60;75.30;;;;;;5056661;28;20032;-75
2021/05/24 05:51:42;;;;;;;1.70;0.30;;;13.60;75.40;;;;;;5056564;28;20036;-74
2021/05/24 05:54:08;;;;;;;1.48;0.20;;;13.70;75.60;;;;;;5022242;28;20432;-74
2021/05/24 05:56:33;;;;;;;0.95;0.30;;;13.70;75.60;;;;;;5022689;28;20526;-75
2021/05/24 05:58:59;;;;;;;2.75;0.45;;;13.70;75.40;;;;;;5038639;28;20025;-75
2021/05/24 06:01:25;;;;;;;1.95;0.40;;;13.70;75.40;;;;;;5022098;28;20037;-74
2021/05/24 06:03:50;;;;;;;3.65;0.38;;;13.80;75.40;;;;;;5038574;28;20083;-76
2021/05/24 06:06:16;;;;;;;2.80;0.45;;;13.80;75.40;;;;;;5056529;28;20029;-75
2021/05/24 06:08:41;;;;;;;1.05;0.30;;;13.80;75.40;;;;;;5055098;28;20029;-75
2021/05/24 06:11:07;;;;;;;2.85;0.40;;;13.80;75.30;;;;;;5055205;28;20032;-76
2021/05/24 06:13:34;;;;;;;1.90;0.20;;;13.90;75.30;;;;;;5055093;28;20469;-74
2021/05/24 06:15:59;;;;;;;5.45;0.60;;;13.90;75.20;;;;;;5034931;28;20404;-74
2021/05/24 06:18:25;;;;;;;1.95;0.38;;;13.90;75.30;;;;;;5036262;28;20021;-75
2021/05/24 06:20:51;;;;;;;1.00;0.30;;;14.00;75.30;;;;;;5034889;28;20030;-76
2021/05/24 06:23:17;;;;;;;3.83;0.38;;;14.00;75.10;;;;;;5034999;28;20496;-75
2021/05/24 06:25:44;;;;;;;2.45;0.32;;;14.00;75.10;;;;;;5034896;28;20029;-75
2021/05/24 06:28:10;;;;;;;6.78;0.40;;;14.10;75.10;;;;;;5036144;28;20090;-75
2021/05/24 06:30:36;;;;;;;2.35;0.50;;;14.10;75.10;;;;;;5034814;28;20038;-76
2021/05/24 06:33:02;;;;;;;2.67;0.40;;;14.10;75.10;;;;;;5035877;28;20447;-76
2021/05/24 06:35:28;;;;;;;1.10;0.30;;;14.10;75.10;;;;;;5034860;28;20084;-75
2021/05/24 06:37:54;;;;;;;2.30;0.40;;;14.10;75.10;;;;;;5035789;28;20110;-75
2021/05/24 06:40:20;;;;;;;4.80;0.40;;;14.00;75.20;;;;;;5033676;28;20116;-78
2021/05/24 06:42:47;;;;;;;5.05;0.50;;;14.10;75.40;;;;;;5035572;28;20103;-77
2021/05/24 06:45:15;;;;;;;1.63;0.30;;;14.00;74.40;;;;;;5035296;28;20029;-78
2021/05/24 06:47:40;;;;;;;1.40;0.20;;;14.00;74.40;;;;;;5036004;28;20036;-80
2021/05/24 06:50:07;;;;;;;1.52;0.40;;;14.00;74.40;;;;;;5035721;28;20030;-80
2021/05/24 06:52:33;;;;;;;1.73;0.40;;;13.90;74.40;;;;;;5018055;28;20033;-80
2021/05/24 06:54:59;;;;;;;2.53;0.30;;;13.90;74.50;;;;;;5034609;28;20025;-82
2021/05/24 06:57:25;;;;;;;1.08;0.30;;;13.90;75.30;;;;;;5035562;28;20370;-79
2021/05/24 06:59:51;;;;;;;2.50;0.40;;;13.90;74.80;;;;;;5034442;28;20033;-81
2021/05/24 07:02:17;;;;;;;1.40;0.38;;;13.80;75.00;;;;;;5001591;28;20034;-80
2021/05/24 07:04:46;;;;;;;4.82;0.40;;;13.90;75.10;;;;;;5035653;28;20060;-80
2021/05/24 07:07:12;;;;;;;1.20;0.55;;;13.80;75.20;;;;;;5017887;28;20163;-80
2021/05/24 07:09:37;;;;;;;1.70;0.40;;;13.80;75.40;;;;;;5034128;28;20044;-79
2021/05/24 07:12:05;;;;;;;2.05;0.40;;;13.80;75.60;;;;;;5017601;28;20061;-76
2021/05/24 07:14:30;;;;;;;1.70;0.20;;;13.80;75.50;;;;;;5041520;28;20052;-76
2021/05/24 07:16:56;;;;;;;2.97;0.30;;;13.70;75.60;;;;;;5053711;28;20025;-76
2021/05/24 07:19:22;;;;;;;1.80;0.30;;;13.80;75.60;;;;;;5053999;28;20033;-81
2021/05/24 07:21:48;;;;;;;0.80;0.28;;;13.70;75.50;;;;;;5037547;28;20021;-81
2021/05/24 07:24:13;;;;;;;1.90;0.30;;;13.70;75.60;;;;;;5053730;28;20025;-81
2021/05/24 07:26:40;;;;;;;0.82;0.30;;;13.60;75.50;;;;;;5055304;28;20381;-81
2021/05/24 07:29:06;;;;;;;2.50;0.30;;;13.60;75.60;;;;;;5054115;28;20025;-78
2021/05/24 07:31:31;;;;;;;1.25;0.28;;;13.60;75.40;;;;;;5053704;28;20079;-75
2021/05/24 07:33:57;;;;;;;2.10;0.22;;;13.60;75.60;;;;;;5053643;28;20106;-77
2021/05/24 07:36:23;;;;;;;2.70;0.40;;;13.60;75.70;;;;;;5053643;28;20025;-78
2021/05/24 07:38:48;;;;;;;2.08;0.40;;;13.60;76.00;;;;;;5053557;28;20500;-78
2021/05/24 07:41:15;;;;;;;2.28;0.30;;;13.60;76.10;;;;;;5053577;28;20029;-78
2021/05/24 07:43:41;;;;;;;1.33;0.35;;;13.60;76.30;;;;;;5053479;28;20103;-79
2021/05/24 07:46:07;;;;;;;3.70;0.40;;;13.60;76.40;;;;;;5037032;28;20123;-79
2021/05/24 07:48:33;;;;;;;2.72;0.40;;;13.60;76.80;;;;;;5054457;28;20061;-78
2021/05/24 07:51:00;;;;;;;2.20;0.30;;;13.60;77.00;;;;;;5053291;28;20033;-78
2021/05/24 07:53:26;;;;;;;1.20;0.20;;;13.60;77.20;;;;;;5052646;28;20025;-78
2021/05/24 07:55:52;;;;;;;2.15;0.40;;;13.60;77.30;;;;;;5053012;28;20059;-78
2021/05/24 07:58:18;;;;;;;1.77;0.22;;;13.60;77.40;;;;;;5037032;28;20026;-78
2021/05/24 08:00:43;;;;;;;2.20;0.40;;;13.70;77.50;;;;;;5036867;28;20389;-78
2021/05/24 08:03:09;;;;;;;2.40;0.40;;;13.70;78.20;;;;;;5036423;28;20490;-78
2021/05/24 08:05:35;;;;;;;3.10;0.50;;;13.70;77.90;;;;;;5036325;28;20067;-79
2021/05/24 08:08:01;;;;;;;0.60;0.30;;;13.70;77.80;;;;;;5019871;28;20103;-79
2021/05/24 08:10:28;;;;;;;1.85;0.40;;;13.70;77.60;;;;;;5036358;28;20037;-81
2021/05/24 08:12:53;;;;;;;1.48;0.30;;;13.80;77.60;;;;;;5049338;28;20032;-77
2021/05/24 08:15:32;;;;;;;1.13;0.40;;;13.70;77.60;;;;;;5054910;28;20480;-81
2021/05/24 08:17:59;;;;;;;1.10;0.50;;;13.70;77.70;;;;;;5056671;28;20025;-79
2021/05/24 08:20:25;;;;;;;1.67;0.50;;;13.70;77.80;;;;;;5072936;28;20118;-84
2021/05/24 08:22:51;;;;;;;2.65;0.30;;;13.70;78.00;;;;;;5072651;28;20063;-81
2021/05/24 08:25:17;;;;;;;3.20;0.80;;;13.70;78.30;;;;;;5039347;28;20056;-80
2021/05/24 08:27:43;;;;;;;3.40;0.70;;;13.70;78.50;;;;;;5073111;28;20028;-81
2021/05/24 08:30:09;;;;;;;2.28;0.70;;;13.60;78.70;;;;;;5055875;28;20043;-78
2021/05/24 08:32:35;;;;;;;6.40;0.55;;;13.70;78.90;;;;;;5055836;28;20127;-80
2021/05/24 08:35:02;;;;;;;1.38;0.38;;;13.70;79.20;;;;;;5073699;28;20433;-81
2021/05/24 08:37:27;;;;;;;4.57;0.30;;;13.80;79.20;;;;;;5072645;28;20025;-78
2021/05/24 08:39:53;;;;;;;4.78;0.50;;;13.80;79.30;;;;;;5072580;28;20034;-80
2021/05/24 08:42:19;;;;;;;1.33;0.45;;;13.80;79.30;;;;;;5073809;28;20033;-79
2021/05/24 08:44:47;;;;;;;2.55;0.40;;;13.80;79.50;;;;;;5072826;28;20047;-81
2021/05/24 08:47:14;;;;;;;3.13;0.70;;;13.80;79.90;;;;;;5072638;28;20478;-80
2021/05/24 08:49:39;;;;;;;3.80;0.50;;;13.80;80.00;;;;;;5072604;28;20115;-77
2021/05/24 08:52:05;;;;;;;3.03;0.40;;;13.80;80.30;;;;;;5072715;28;20066;-80
2021/05/24 08:54:35;;;;;;;3.60;0.50;;;13.80;80.30;;;;;;5055549;28;20027;-79
2021/05/24 08:57:01;;;;;;;5.15;0.73;;;13.80;80.20;;;;;;5073450;28;20028;-79
2021/05/24 08:59:28;;;;;;;3.13;0.50;;;13.80;80.20;;;;;;5073392;28;20036;-79
2021/05/24 09:01:54;;;;;;;2.40;0.60;;;13.70;80.60;;;;;;5072047;28;20077;-78
2021/05/24 09:04:19;;;;;;;2.95;0.60;;;13.70;80.60;;;;;;5071523;28;20493;-79
2021/05/24 09:06:49;;;;;;;3.15;0.60;;;13.70;80.70;;;;;;5055349;28;20484;-77
2021/05/24 09:09:17;;;;;;;1.35;0.40;;;13.60;80.90;;;;;;5073079;28;20036;-79
2021/05/24 09:11:44;;;;;;;3.42;0.68;;;13.60;81.40;;;;;;5073120;28;20029;-78
2021/05/24 09:14:18;;;;;;;1.85;0.50;;;13.50;81.60;;;;;;5073030;28;20060;-78
2021/05/24 09:16:44;;;;;;;;;;;13.50;81.80;;;;;;5056591;28;20074;-78
2021/05/24 09:19:18;;;;;;;2.25;0.47;;;13.40;81.00;;;;;;5072003;28;19946;-78
2021/05/24 09:22:22;;;;;;;3.03;0.50;;;13.40;81.30;;;;;;5073180;28;20101;-78
2021/05/24 09:24:48;;;;;;;1.90;0.40;;;13.40;81.00;;;;;;5054033;28;20369;-77
2021/05/24 09:27:28;;;;;;;1.08;0.40;;;13.50;81.10;;;;;;5072588;28;20052;-77
2021/05/24 09:29:58;;;;;;;3.55;0.63;;;13.50;81.00;;;;;;5071910;28;20017;-81
2021/05/24 09:32:25;;;;;;;1.88;0.40;;;13.60;81.00;;;;;;5055078;28;20373;-77
2021/05/24 09:34:53;;;;;;;2.05;0.32;;;13.70;80.80;;;;;;5071690;28;20012;-79
2021/05/24 09:37:32;;;;;;;2.30;0.50;;;13.80;80.60;;;;;;5072888;28;20020;-78
2021/05/24 09:39:59;;;;;;;2.17;0.50;;;13.90;80.60;;;;;;5071674;28;20048;-80
2021/05/24 09:42:25;;;;;;;0.68;0.30;;;14.00;80.10;;;;;;5071677;28;20028;-81
2021/05/24 09:44:54;;;;;;;5.28;0.50;;;14.10;80.30;;;;;;5054957;28;20547;-79
2021/05/24 09:47:39;;;;;;;2.67;0.47;;;14.20;80.20;;;;;;5071915;28;20017;-79
2021/05/24 09:50:07;;;;;;;3.85;0.50;;;14.30;79.90;;;;;;5071489;28;20028;-81
2021/05/24 09:52:40;;;;;;;3.10;0.45;;;14.30;79.60;;;;;;5072698;28;20035;-78
2021/05/24 09:55:16;;;;;;;1.95;0.40;;;14.40;79.30;;;;;;5071690;28;20469;-77
2021/05/24 09:58:01;;;;;;;3.85;0.52;;;14.40;79.20;;;;;;5072718;28;20038;-75
2021/05/24 10:00:38;;;;;;;4.22;0.70;;;14.30;78.40;;;;;;5071527;28;20027;-78
2021/05/24 10:03:06;;;;;;;2.70;0.50;;;14.30;79.00;;;;;;5071364;28;20488;-77
2021/05/24 10:05:44;;;;;;;3.38;0.60;;;14.20;78.70;;;;;;5071722;28;20397;-76
2021/05/24 10:08:10;;;;;;;2.50;0.45;;;14.10;78.70;;;;;;5071826;28;20025;-78
2021/05/24 10:10:37;;;;;;;4.07;0.50;;;14.10;78.90;;;;;;5071760;28;20024;-80
2021/05/24 10:13:03;;;;;;;3.30;0.50;;;14.00;79.10;;;;;;5054974;28;20031;-77
2021/05/24 10:15:29;;;;;;;2.35;0.50;;;14.00;79.40;;;;;;5073188;28;20400;-79
2021/05/24 10:18:01;;;;;;;1.38;0.50;;;14.00;79.40;;;;;;5076311;28;20025;-77
2021/05/24 10:20:28;;;;;;;4.28;0.45;;;14.20;79.70;;;;;;5059269;28;20540;-74
2021/05/24 10:22:54;;;;;;;3.15;0.45;;;14.20;79.50;;;;;;5058269;28;20024;-75
2021/05/24 10:25:20;;;;;;;2.28;0.52;;;14.30;79.60;;;;;;5042015;28;20039;-74
2021/05/24 10:27:46;;;;;;;3.08;0.50;;;14.40;79.40;;;;;;5074890;28;20446;-78
2021/05/24 10:30:13;;;;;;;3.03;0.70;;;14.50;79.40;;;;;;5057787;28;20081;-74
2021/05/24 10:32:53;;;;;;;3.03;0.40;;;14.60;79.50;;;;;;5075845;28;20036;-75
2021/05/24 10:35:45;;;;;;;1.75;0.40;;;14.70;79.00;;;;;;5074628;28;20035;-76
2021/05/24 10:38:32;;;;;;;2.90;0.70;;;14.80;79.00;;;;;;5057853;28;20074;-73
2021/05/24 10:41:12;;;;;;;2.42;0.55;;;14.80;78.70;;;;;;5075763;28;20045;-76
2021/05/24 10:43:55;;;;;;;1.17;0.50;;;14.90;78.90;;;;;;5075764;28;20376;-75
2021/05/24 10:46:30;;;;;;;3.07;0.43;;;14.80;78.80;;;;;;5074200;28;20033;-76
2021/05/24 10:48:57;;;;;;;1.17;0.30;;;14.80;79.60;;;;;;5075514;28;20336;-76
2021/05/24 10:52:07;;;;;;;1.48;0.57;;;14.80;79.50;;;;;;5057485;28;20056;-76
2021/05/24 10:54:41;;;;;;;5.97;0.60;;;14.70;80.00;;;;;;5074002;28;20114;-75
2021/05/24 10:57:08;;;;;;;;;;;14.50;80.80;;;;;;5075795;28;20017;-76
2021/05/24 10:59:44;;;;;;;2.60;0.60;;;14.50;80.90;;;;;;5075412;28;20023;-75
2021/05/24 11:02:26;;;;;;;4.25;0.60;;;14.40;81.50;;;;;;5074134;28;20043;-76
2021/05/24 11:05:01;;;;;;;1.35;0.57;;;14.30;81.70;;;;;;5075180;28;20434;-76
2021/05/24 11:07:30;;;;;;;2.47;0.60;;;14.20;82.40;;;;;;5075301;28;20111;-77
2021/05/24 11:10:17;;;;;;;2.00;0.60;;;14.20;83.20;;;;;;5073839;28;20029;-76
2021/05/24 11:12:49;;;;;;;2.17;0.88;;;14.20;83.80;;;;;;5073736;28;20392;-75
2021/05/24 11:15:22;;;;;;;3.15;0.93;;;14.20;84.20;;;;;;5074968;28;20532;-75
2021/05/24 11:20:49;;;;;;;2.70;0.50;;;14.50;85.10;;;;;;5075299;28;20031;-76
2021/05/24 11:23:47;;;;;;;2.35;0.50;;;14.70;84.80;;;;;;5073248;28;20056;-76
2021/05/24 11:26:18;;;;;;;0.55;0.20;;;14.80;83.70;;;;;;5073087;28;20086;-76
2021/05/24 11:28:51;;;;;;;5.50;0.50;;;14.90;82.90;;;;;;5073224;28;20123;-76
2021/05/24 11:31:25;;;;;;;2.50;0.35;;;15.00;82.50;;;;;;5073413;28;20024;-78
2021/05/24 11:33:54;;;;;;;1.73;0.28;;;15.10;81.30;;;;;;5074666;28;20064;-75
2021/05/24 11:36:40;;;;;;;0.60;0.10;;;15.10;81.30;;;;;;5073475;28;20056;-79
2021/05/24 11:39:12;;;;;;;1.15;0.20;;;15.20;80.10;;;;;;5074540;28;20530;-75
2021/05/24 11:42:01;;;;;;;1.55;0.40;;;15.10;79.30;;;;;;5075159;28;20043;-76
2021/05/24 11:44:33;;;;;;;0.90;0.20;;;15.20;80.10;;;;;;5074502;28;20021;-76
2021/05/24 11:47:00;;;;;;;0.70;0.10;;;15.50;80.30;;;;;;5073293;28;20033;-78
2021/05/24 11:49:37;;;;;;;0.52;0.20;;;15.70;79.70;;;;;;5073096;28;20113;-76
2021/05/24 11:52:06;;;;;;;2.53;0.30;;;16.00;78.90;;;;;;5074135;28;20021;-76
2021/05/24 11:54:32;;;;;;;1.75;0.32;;;16.10;79.00;;;;;;5074290;28;20392;-76
2021/05/24 11:57:00;;;;;;;1.95;0.30;;;16.40;78.00;;;;;;5073010;28;20032;-76
2021/05/24 11:59:27;;;;;;;0.45;0.15;;;16.60;77.10;;;;;;5073061;28;20033;-74
2021/05/24 12:01:54;;;;;;;0.50;0.17;;;16.80;76.80;;;;;;5056298;28;20078;-77
2021/05/24 12:04:26;;;;;;;1.85;0.30;;;16.80;74.70;;;;;;5072963;28;20400;-75
2021/05/24 12:06:53;;;;;;;1.13;0.28;;;16.70;73.30;;;;;;5074053;28;20033;-77
2021/05/24 12:09:49;;;;;;;0.88;0.25;;;16.50;73.70;;;;;;5073855;28;20484;-76
2021/05/24 12:12:19;;;;;;;1.52;0.20;;;16.50;72.50;;;;;;5073589;28;20059;-76
2021/05/24 12:14:47;;;;;;;1.20;0.20;;;16.20;70.60;;;;;;5073669;28;20123;-75
2021/05/24 12:17:18;;;;;;;1.85;0.30;;;16.00;71.60;;;;;;5073769;28;20029;-75
2021/05/24 12:19:46;;;;;;;1.10;0.10;;;15.90;71.70;;;;;;5072816;28;20024;-75
2021/05/24 12:22:13;;;;;;;1.45;0.13;;;15.70;71.60;;;;;;5073777;28;20054;-75
2021/05/24 12:24:42;;;;;;;0.30;0.10;;;15.60;72.00;;;;;;5073726;28;20097;-76
2021/05/24 12:27:09;;;;;;;3.70;0.20;;;15.60;72.00;;;;;;5072474;28;20016;-78
2021/05/24 12:29:52;;;;;;;0.70;0.30;;;15.70;72.50;;;;;;5073626;28;20491;-75
2021/05/24 12:32:38;;;;;;;0.40;0.17;;;15.80;72.70;;;;;;5073502;28;20024;-76
2021/05/24 12:35:09;;;;;;;0.57;0.20;;;15.90;72.50;;;;;;5072378;28;20468;-80
2021/05/24 12:37:37;;;;;;;0.40;0.13;;;16.00;72.00;;;;;;5072225;28;20031;-81
2021/05/24 12:40:08;;;;;;;0.52;0.10;;;16.00;71.80;;;;;;5072589;28;20040;-79
2021/05/24 12:42:37;;;;;;;1.60;0.20;;;16.00;71.70;;;;;;5073425;28;20712;-78
2021/05/24 12:45:05;;;;;;;1.33;0.20;;;15.90;72.40;;;;;;5055853;28;20039;-79
2021/05/24 12:47:30;;;;;;;1.27;0.30;;;16.00;72.50;;;;;;5071957;28;20063;-78
2021/05/24 12:49:56;;;;;;;0.20;0.10;;;16.00;72.50;;;;;;5055604;28;20430;-77
2021/05/24 12:52:22;;;;;;;3.15;0.20;;;16.00;72.20;;;;;;5072396;28;20105;-81
2021/05/24 12:54:50;;;;;;;1.67;0.20;;;16.00;72.10;;;;;;5072145;28;20554;-78